sensor_id;sensor_type;location;lat;lon;timestamp;pressure;altitude;pressure_sealevel;temperature;humidity
54872;BME280;43914;57.680;11.982;2022-09-29T00:01:54;99281.77;;;8.68;85.73
54872;BME280;43914;57.680;11.982;2022-09-29T00:04:20;99284.87;;;8.64;85.85
54872;BME280;43914;57.680;11.982;2022-09-29T00:06:46;99286.63;;;8.61;86.05
54872;BME280;43914;57.680;11.982;2022-09-29T00:09:12;99289.81;;;8.61;86.02
54872;BME280;43914;57.680;11.982;2022-09-29T00:11:38;99285.37;;;8.57;85.99
54872;BME280;43914;57.680;11.982;2022-09-29T00:14:06;99287.13;;;8.54;86.15
54872;BME280;43914;57.680;11.982;2022-09-29T00:16:32;99286.81;;;8.53;86.19
54872;BME280;43914;57.680;11.982;2022-09-29T00:18:57;99276.52;;;8.50;86.40
54872;BME280;43914;57.680;11.982;2022-09-29T00:21:24;99282.57;;;8.48;86.38
54872;BME280;43914;57.680;11.982;2022-09-29T00:23:50;99285.25;;;8.48;86.56
54872;BME280;43914;57.680;11.982;2022-09-29T00:26:19;99280.92;;;8.47;86.56
54872;BME280;43914;57.680;11.982;2022-09-29T00:28:55;99284.55;;;8.43;86.86
54872;BME280;43914;57.680;11.982;2022-09-29T00:31:28;99279.20;;;8.43;86.90
54872;BME280;43914;57.680;11.982;2022-09-29T00:33:52;99276.41;;;8.41;87.20
54872;BME280;43914;57.680;11.982;2022-09-29T00:36:19;99276.09;;;8.40;87.41
54872;BME280;43914;57.680;11.982;2022-09-29T00:38:47;99269.09;;;8.38;87.48
54872;BME280;43914;57.680;11.982;2022-09-29T00:41:19;99268.56;;;8.39;87.56
54872;BME280;43914;57.680;11.982;2022-09-29T00:46:41;99268.56;;;8.39;87.77
54872;BME280;43914;57.680;11.982;2022-09-29T00:52:24;99272.08;;;8.40;88.05
54872;BME280;43914;57.680;11.982;2022-09-29T00:54:59;99270.52;;;8.41;87.92
54872;BME280;43914;57.680;11.982;2022-09-29T00:57:36;99272.08;;;8.40;87.83
54872;BME280;43914;57.680;11.982;2022-09-29T01:00:10;99279.08;;;8.41;87.98
54872;BME280;43914;57.680;11.982;2022-09-29T01:02:44;99278.23;;;8.40;88.06
54872;BME280;43914;57.680;11.982;2022-09-29T01:05:30;99261.70;;;8.27;88.07
54872;BME280;43914;57.680;11.982;2022-09-29T01:08:05;99285.47;;;8.40;88.16
54872;BME280;43914;57.680;11.982;2022-09-29T01:10:36;99285.16;;;8.38;88.59
54872;BME280;43914;57.680;11.982;2022-09-29T01:13:04;99287.30;;;8.39;88.67
54872;BME280;43914;57.680;11.982;2022-09-29T01:15:30;99276.81;;;8.37;88.71
54872;BME280;43914;57.680;11.982;2022-09-29T01:17:57;99275.48;;;8.37;89.02
54872;BME280;43914;57.680;11.982;2022-09-29T01:20:24;99271.97;;;8.37;88.88
54872;BME280;43914;57.680;11.982;2022-09-29T01:23:13;99271.47;;;8.37;88.76
54872;BME280;43914;57.680;11.982;2022-09-29T01:38:14;99274.05;;;8.28;89.54
54872;BME280;43914;57.680;11.982;2022-09-29T01:43:39;99279.17;;;8.23;89.88
54872;BME280;43914;57.680;11.982;2022-09-29T01:48:51;99281.64;;;8.18;90.24
54872;BME280;43914;57.680;11.982;2022-09-29T01:51:44;99282.05;;;8.15;90.46
54872;BME280;43914;57.680;11.982;2022-09-29T01:55:18;99281.74;;;8.14;91.25
54872;BME280;43914;57.680;11.982;2022-09-29T02:00:08;99275.27;;;8.12;91.64
54872;BME280;43914;57.680;11.982;2022-09-29T02:05:23;99283.08;;;8.14;91.89
54872;BME280;43914;57.680;11.982;2022-09-29T02:08:55;99277.11;;;8.12;92.03
54872;BME280;43914;57.680;11.982;2022-09-29T02:10:54;99283.80;;;8.12;92.24
54872;BME280;43914;57.680;11.982;2022-09-29T02:13:22;99281.12;;;8.12;92.74
54872;BME280;43914;57.680;11.982;2022-09-29T02:15:51;99289.58;;;8.15;92.40
54872;BME280;43914;57.680;11.982;2022-09-29T02:18:22;99290.92;;;8.15;92.31
54872;BME280;43914;57.680;11.982;2022-09-29T02:20:50;99288.74;;;8.15;92.55
54872;BME280;43914;57.680;11.982;2022-09-29T02:23:17;99293.38;;;8.17;92.45
54872;BME280;43914;57.680;11.982;2022-09-29T02:25:45;99294.61;;;8.21;92.59
54872;BME280;43914;57.680;11.982;2022-09-29T02:28:12;99299.96;;;8.21;92.77
54872;BME280;43914;57.680;11.982;2022-09-29T02:30:38;99292.05;;;8.23;92.35
54872;BME280;43914;57.680;11.982;2022-09-29T02:33:04;99294.42;;;8.22;92.54
54872;BME280;43914;57.680;11.982;2022-09-29T02:35:55;99277.42;;;8.13;92.63
54872;BME280;43914;57.680;11.982;2022-09-29T02:38:34;99287.81;;;8.25;92.66
54872;BME280;43914;57.680;11.982;2022-09-29T02:41:02;99288.96;;;8.27;92.57
54872;BME280;43914;57.680;11.982;2022-09-29T02:46:35;99274.05;;;8.28;92.57
54872;BME280;43914;57.680;11.982;2022-09-29T02:49:25;99272.17;;;8.29;92.60
54872;BME280;43914;57.680;11.982;2022-09-29T02:51:58;99277.75;;;8.27;92.66
54872;BME280;43914;57.680;11.982;2022-09-29T02:54:53;99273.33;;;8.30;92.50
54872;BME280;43914;57.680;11.982;2022-09-29T02:57:44;99276.31;;;8.31;92.51
54872;BME280;43914;57.680;11.982;2022-09-29T03:00:25;99277.95;;;8.32;92.64
54872;BME280;43914;57.680;11.982;2022-09-29T03:02:52;99280.41;;;8.34;92.51
54872;BME280;43914;57.680;11.982;2022-09-29T03:05:20;99276.62;;;8.32;92.43
54872;BME280;43914;57.680;11.982;2022-09-29T03:07:47;99288.66;;;8.32;92.62
54872;BME280;43914;57.680;11.982;2022-09-29T03:10:15;99288.44;;;8.34;92.72
54872;BME280;43914;57.680;11.982;2022-09-29T03:12:42;99283.70;;;8.36;92.88
54872;BME280;43914;57.680;11.982;2022-09-29T03:15:09;99288.14;;;8.40;92.82
54872;BME280;43914;57.680;11.982;2022-09-29T03:17:37;99288.34;;;8.45;92.82
54872;BME280;43914;57.680;11.982;2022-09-29T03:20:04;99296.61;;;8.50;92.52
54872;BME280;43914;57.680;11.982;2022-09-29T03:22:31;99300.02;;;8.55;92.52
54872;BME280;43914;57.680;11.982;2022-09-29T03:24:57;99299.71;;;8.60;92.30
54872;BME280;43914;57.680;11.982;2022-09-29T03:27:23;99297.00;;;8.67;92.07
54872;BME280;43914;57.680;11.982;2022-09-29T03:29:49;99302.47;;;8.70;91.80
54872;BME280;43914;57.680;11.982;2022-09-29T03:32:16;99307.22;;;8.74;91.60
54872;BME280;43914;57.680;11.982;2022-09-29T03:34:42;99304.12;;;8.77;91.45
54872;BME280;43914;57.680;11.982;2022-09-29T03:37:08;99311.20;;;8.81;91.28
54872;BME280;43914;57.680;11.982;2022-09-29T03:39:34;99311.09;;;8.85;90.96
54872;BME280;43914;57.680;11.982;2022-09-29T03:42:01;99312.12;;;8.91;90.80
54872;BME280;43914;57.680;11.982;2022-09-29T03:44:27;99313.88;;;8.94;90.61
54872;BME280;43914;57.680;11.982;2022-09-29T03:46:52;99319.12;;;8.99;90.33
54872;BME280;43914;57.680;11.982;2022-09-29T03:49:18;99316.53;;;9.01;90.09
54872;BME280;43914;57.680;11.982;2022-09-29T03:51:44;99319.12;;;9.05;90.08
54872;BME280;43914;57.680;11.982;2022-09-29T03:54:10;99306.53;;;9.06;89.77
54872;BME280;43914;57.680;11.982;2022-09-29T03:56:37;99311.77;;;9.10;89.48
54872;BME280;43914;57.680;11.982;2022-09-29T03:59:04;99311.05;;;9.12;89.32
54872;BME280;43914;57.680;11.982;2022-09-29T04:01:33;99305.38;;;9.11;89.09
54872;BME280;43914;57.680;11.982;2022-09-29T04:04:00;99311.35;;;9.13;88.87
54872;BME280;43914;57.680;11.982;2022-09-29T04:06:26;99304.88;;;9.12;88.75
54872;BME280;43914;57.680;11.982;2022-09-29T04:08:52;99316.83;;;9.09;88.60
54872;BME280;43914;57.680;11.982;2022-09-29T04:11:17;99317.25;;;9.06;88.61
54872;BME280;43914;57.680;11.982;2022-09-29T04:13:43;99317.98;;;9.04;88.63
54872;BME280;43914;57.680;11.982;2022-09-29T04:16:09;99316.34;;;9.03;88.78
54872;BME280;43914;57.680;11.982;2022-09-29T04:18:36;99317.06;;;9.01;88.78
54872;BME280;43914;57.680;11.982;2022-09-29T04:21:06;99316.45;;;8.99;88.85
54872;BME280;43914;57.680;11.982;2022-09-29T04:23:33;99320.47;;;8.99;88.79
54872;BME280;43914;57.680;11.982;2022-09-29T04:25:59;99319.02;;;8.96;88.86
54872;BME280;43914;57.680;11.982;2022-09-29T04:28:30;99331.80;;;8.94;88.90
54872;BME280;43914;57.680;11.982;2022-09-29T04:30:57;99326.36;;;8.91;89.06
54872;BME280;43914;57.680;11.982;2022-09-29T04:33:23;99317.38;;;8.88;89.08
54872;BME280;43914;57.680;11.982;2022-09-29T04:35:49;99328.20;;;8.84;89.20
54872;BME280;43914;57.680;11.982;2022-09-29T04:38:16;99322.03;;;8.84;89.25
54872;BME280;43914;57.680;11.982;2022-09-29T04:40:42;99325.64;;;8.80;89.24
54872;BME280;43914;57.680;11.982;2022-09-29T04:43:08;99326.89;;;8.77;89.32
54872;BME280;43914;57.680;11.982;2022-09-29T04:45:34;99330.80;;;8.75;89.36
54872;BME280;43914;57.680;11.982;2022-09-29T04:48:00;99325.86;;;8.72;89.45
54872;BME280;43914;57.680;11.982;2022-09-29T04:50:26;99328.73;;;8.70;89.41
54872;BME280;43914;57.680;11.982;2022-09-29T04:52:53;99324.82;;;8.66;89.48
54872;BME280;43914;57.680;11.982;2022-09-29T04:55:19;99341.84;;;8.62;89.74
54872;BME280;43914;57.680;11.982;2022-09-29T04:57:45;99339.95;;;8.56;89.86
54872;BME280;43914;57.680;11.982;2022-09-29T05:00:13;99339.34;;;8.54;90.00
54872;BME280;43914;57.680;11.982;2022-09-29T05:02:40;99348.09;;;8.52;90.07
54872;BME280;43914;57.680;11.982;2022-09-29T05:05:07;99340.45;;;8.49;90.23
54872;BME280;43914;57.680;11.982;2022-09-29T05:07:35;99347.55;;;8.46;90.47
54872;BME280;43914;57.680;11.982;2022-09-29T05:10:03;99352.30;;;8.44;90.53
54872;BME280;43914;57.680;11.982;2022-09-29T05:12:30;99348.69;;;8.41;90.53
54872;BME280;43914;57.680;11.982;2022-09-29T05:14:56;99350.83;;;8.41;90.76
54872;BME280;43914;57.680;11.982;2022-09-29T05:17:22;99344.77;;;8.36;90.89
54872;BME280;43914;57.680;11.982;2022-09-29T05:19:49;99345.19;;;8.33;91.10
54872;BME280;43914;57.680;11.982;2022-09-29T05:22:15;99343.01;;;8.33;91.45
54872;BME280;43914;57.680;11.982;2022-09-29T05:24:41;99348.27;;;8.30;91.29
54872;BME280;43914;57.680;11.982;2022-09-29T05:27:07;99348.47;;;8.29;91.43
54872;BME280;43914;57.680;11.982;2022-09-29T05:29:33;99350.33;;;8.28;91.45
54872;BME280;43914;57.680;11.982;2022-09-29T05:32:00;99349.50;;;8.28;91.63
54872;BME280;43914;57.680;11.982;2022-09-29T05:34:26;99353.02;;;8.28;91.68
54872;BME280;43914;57.680;11.982;2022-09-29T05:36:52;99351.67;;;8.28;91.69
54872;BME280;43914;57.680;11.982;2022-09-29T05:39:18;99352.70;;;8.27;91.63
54872;BME280;43914;57.680;11.982;2022-09-29T05:41:47;99349.50;;;8.28;91.61
54872;BME280;43914;57.680;11.982;2022-09-29T05:44:13;99342.80;;;8.28;91.76
54872;BME280;43914;57.680;11.982;2022-09-29T05:46:41;99356.80;;;8.30;91.72
54872;BME280;43914;57.680;11.982;2022-09-29T05:49:07;99347.44;;;8.30;91.74
54872;BME280;43914;57.680;11.982;2022-09-29T05:51:34;99357.42;;;8.32;91.65
54872;BME280;43914;57.680;11.982;2022-09-29T05:54:00;99352.07;;;8.32;91.62
54872;BME280;43914;57.680;11.982;2022-09-29T05:56:27;99356.92;;;8.32;91.65
54872;BME280;43914;57.680;11.982;2022-09-29T05:58:53;99343.54;;;8.32;91.66
54872;BME280;43914;57.680;11.982;2022-09-29T06:01:23;99351.34;;;8.34;91.65
54872;BME280;43914;57.680;11.982;2022-09-29T06:03:55;99351.88;;;8.33;91.68
54872;BME280;43914;57.680;11.982;2022-09-29T06:06:22;99356.30;;;8.37;91.82
54872;BME280;43914;57.680;11.982;2022-09-29T06:08:50;99364.63;;;8.38;91.87
54872;BME280;43914;57.680;11.982;2022-09-29T06:11:22;99361.45;;;8.38;91.85
54872;BME280;43914;57.680;11.982;2022-09-29T06:13:51;99359.17;;;8.42;91.77
54872;BME280;43914;57.680;11.982;2022-09-29T06:16:20;99365.98;;;8.45;91.65
54872;BME280;43914;57.680;11.982;2022-09-29T06:18:50;99368.25;;;8.48;91.48
54872;BME280;43914;57.680;11.982;2022-09-29T06:21:18;99374.88;;;8.52;91.35
54872;BME280;43914;57.680;11.982;2022-09-29T06:23:46;99378.17;;;8.54;91.25
54872;BME280;43914;57.680;11.982;2022-09-29T06:26:14;99376.42;;;8.57;91.11
54872;BME280;43914;57.680;11.982;2022-09-29T06:28:42;99381.89;;;8.60;91.04
54872;BME280;43914;57.680;11.982;2022-09-29T06:31:11;99369.73;;;8.64;90.98
54872;BME280;43914;57.680;11.982;2022-09-29T06:33:40;99379.53;;;8.68;90.80
54872;BME280;43914;57.680;11.982;2022-09-29T06:36:26;99379.62;;;8.70;90.65
54872;BME280;43914;57.680;11.982;2022-09-29T06:39:11;99371.08;;;8.71;90.57
54872;BME280;43914;57.680;11.982;2022-09-29T06:41:38;99372.01;;;8.74;90.64
54872;BME280;43914;57.680;11.982;2022-09-29T06:44:05;99369.95;;;8.76;90.52
54872;BME280;43914;57.680;11.982;2022-09-29T06:46:31;99373.55;;;8.79;90.33
54872;BME280;43914;57.680;11.982;2022-09-29T06:48:57;99377.88;;;8.80;90.16
54872;BME280;43914;57.680;11.982;2022-09-29T06:51:24;99383.84;;;8.82;90.08
54872;BME280;43914;57.680;11.982;2022-09-29T06:53:50;99375.50;;;8.81;89.79
54872;BME280;43914;57.680;11.982;2022-09-29T06:56:17;99378.48;;;8.82;89.68
54872;BME280;43914;57.680;11.982;2022-09-29T06:58:44;99378.30;;;8.84;89.76
54872;BME280;43914;57.680;11.982;2022-09-29T07:01:10;99374.05;;;8.85;89.81
54872;BME280;43914;57.680;11.982;2022-09-29T07:03:37;99384.36;;;8.88;89.54
54872;BME280;43914;57.680;11.982;2022-09-29T07:06:05;99379.42;;;8.92;89.58
54872;BME280;43914;57.680;11.982;2022-09-29T07:08:32;99382.30;;;8.97;89.51
54872;BME280;43914;57.680;11.982;2022-09-29T07:11:01;99385.70;;;9.02;89.40
54872;BME280;43914;57.680;11.982;2022-09-29T07:13:28;99394.78;;;9.07;89.03
54872;BME280;43914;57.680;11.982;2022-09-29T07:15:54;99386.52;;;9.09;88.77
54872;BME280;43914;57.680;11.982;2022-09-29T07:18:21;99404.97;;;9.15;88.44
54872;BME280;43914;57.680;11.982;2022-09-29T07:20:48;99395.36;;;9.16;88.42
54872;BME280;43914;57.680;11.982;2022-09-29T07:23:14;99400.95;;;9.21;88.23
54872;BME280;43914;57.680;11.982;2022-09-29T07:25:40;99403.52;;;9.26;88.04
54872;BME280;43914;57.680;11.982;2022-09-29T07:28:07;99411.45;;;9.30;87.93
54872;BME280;43914;57.680;11.982;2022-09-29T07:30:33;99410.49;;;9.33;87.67
54872;BME280;43914;57.680;11.982;2022-09-29T07:33:01;99415.13;;;9.35;87.22
54872;BME280;43914;57.680;11.982;2022-09-29T07:35:27;99415.13;;;9.35;87.20
54872;BME280;43914;57.680;11.982;2022-09-29T07:37:53;99415.97;;;9.36;86.72
54872;BME280;43914;57.680;11.982;2022-09-29T07:40:21;99420.09;;;9.38;86.92
54872;BME280;43914;57.680;11.982;2022-09-29T07:42:48;99415.55;;;9.39;86.48
54872;BME280;43914;57.680;11.982;2022-09-29T07:45:16;99422.13;;;9.43;86.38
54872;BME280;43914;57.680;11.982;2022-09-29T07:47:42;99420.06;;;9.45;86.56
54872;BME280;43914;57.680;11.982;2022-09-29T07:50:09;99413.16;;;9.47;86.47
54872;BME280;43914;57.680;11.982;2022-09-29T07:52:35;99422.02;;;9.47;86.21
54872;BME280;43914;57.680;11.982;2022-09-29T07:55:02;99421.71;;;9.46;86.07
54872;BME280;43914;57.680;11.982;2022-09-29T07:57:29;99429.75;;;9.46;86.19
54872;BME280;43914;57.680;11.982;2022-09-29T07:59:55;99430.79;;;9.45;85.79
54872;BME280;43914;57.680;11.982;2022-09-29T08:02:24;99437.50;;;9.45;85.68
54872;BME280;43914;57.680;11.982;2022-09-29T08:04:50;99442.44;;;9.48;85.92
54872;BME280;43914;57.680;11.982;2022-09-29T08:07:16;99449.45;;;9.49;85.74
54872;BME280;43914;57.680;11.982;2022-09-29T08:09:42;99450.29;;;9.50;85.85
54872;BME280;43914;57.680;11.982;2022-09-29T08:12:08;99451.09;;;9.50;85.41
54872;BME280;43914;57.680;11.982;2022-09-29T08:14:37;99446.69;;;9.53;85.55
54872;BME280;43914;57.680;11.982;2022-09-29T08:17:04;99449.86;;;9.60;85.89
54872;BME280;43914;57.680;11.982;2022-09-29T08:19:30;99445.72;;;9.64;85.49
54872;BME280;43914;57.680;11.982;2022-09-29T08:21:56;99447.06;;;9.64;85.38
54872;BME280;43914;57.680;11.982;2022-09-29T08:24:22;99447.67;;;9.66;85.32
54872;BME280;43914;57.680;11.982;2022-09-29T08:26:49;99451.50;;;9.67;85.42
54872;BME280;43914;57.680;11.982;2022-09-29T08:29:15;99462.42;;;9.73;85.41
54872;BME280;43914;57.680;11.982;2022-09-29T08:31:41;99454.02;;;9.78;84.73
54872;BME280;43914;57.680;11.982;2022-09-29T08:34:08;99459.20;;;9.80;84.33
54872;BME280;43914;57.680;11.982;2022-09-29T08:36:35;99461.76;;;9.84;84.33
54872;BME280;43914;57.680;11.982;2022-09-29T08:39:01;99460.91;;;9.90;83.98
54872;BME280;43914;57.680;11.982;2022-09-29T08:41:49;99470.48;;;9.95;83.99
54872;BME280;43914;57.680;11.982;2022-09-29T08:44:33;99458.71;;;9.96;84.01
54872;BME280;43914;57.680;11.982;2022-09-29T08:47:23;99466.56;;;9.98;83.59
54872;BME280;43914;57.680;11.982;2022-09-29T08:50:19;99475.03;;;10.02;83.54
54872;BME280;43914;57.680;11.982;2022-09-29T08:52:46;99463.15;;;10.00;82.60
54872;BME280;43914;57.680;11.982;2022-09-29T08:55:20;99462.11;;;10.01;82.44
54872;BME280;43914;57.680;11.982;2022-09-29T08:57:56;99475.03;;;10.02;82.03
54872;BME280;43914;57.680;11.982;2022-09-29T09:00:33;99480.90;;;10.01;82.70
54872;BME280;43914;57.680;11.982;2022-09-29T09:03:20;99488.41;;;10.08;82.66
54872;BME280;43914;57.680;11.982;2022-09-29T09:06:01;99486.64;;;10.11;82.67
54872;BME280;43914;57.680;11.982;2022-09-29T09:11:48;99486.42;;;10.20;82.27
54872;BME280;43914;57.680;11.982;2022-09-29T09:14:30;99491.34;;;10.30;82.62
54872;BME280;43914;57.680;11.982;2022-09-29T09:20:33;99492.74;;;10.46;81.22
54872;BME280;43914;57.680;11.982;2022-09-29T09:26:01;99492.86;;;10.58;80.95
54872;BME280;43914;57.680;11.982;2022-09-29T09:28:35;99496.86;;;10.64;80.28
54872;BME280;43914;57.680;11.982;2022-09-29T09:31:18;99495.98;;;10.71;80.66
54872;BME280;43914;57.680;11.982;2022-09-29T09:34:05;99503.45;;;10.85;81.12
54872;BME280;43914;57.680;11.982;2022-09-29T09:36:41;99513.43;;;10.93;80.58
54872;BME280;43914;57.680;11.982;2022-09-29T09:39:21;99506.41;;;10.92;78.70
54872;BME280;43914;57.680;11.982;2022-09-29T09:41:51;99506.41;;;10.92;78.99
54872;BME280;43914;57.680;11.982;2022-09-29T09:44:28;99523.75;;;10.96;78.67
54872;BME280;43914;57.680;11.982;2022-09-29T09:47:07;99517.27;;;10.95;78.29
54872;BME280;43914;57.680;11.982;2022-09-29T09:49:38;99517.27;;;10.95;78.29
54872;BME280;43914;57.680;11.982;2022-09-29T09:55:04;99526.09;;;10.86;78.95
54872;BME280;43914;57.680;11.982;2022-09-29T10:00:54;99529.26;;;10.92;77.19
54872;BME280;43914;57.680;11.982;2022-09-29T10:03:23;99523.48;;;10.89;78.25
54872;BME280;43914;57.680;11.982;2022-09-29T10:05:49;99531.11;;;10.92;78.04
54872;BME280;43914;57.680;11.982;2022-09-29T10:08:24;99528.82;;;10.95;78.07
54872;BME280;43914;57.680;11.982;2022-09-29T10:10:53;99523.61;;;11.01;78.43
54872;BME280;43914;57.680;11.982;2022-09-29T10:13:19;99528.45;;;11.08;78.54
54872;BME280;43914;57.680;11.982;2022-09-29T10:16:09;99534.63;;;11.08;77.72
54872;BME280;43914;57.680;11.982;2022-09-29T10:18:43;99533.82;;;11.08;77.33
54872;BME280;43914;57.680;11.982;2022-09-29T10:26:54;99540.11;;;11.11;77.31
54872;BME280;43914;57.680;11.982;2022-09-29T10:32:03;99539.67;;;11.14;76.73
54872;BME280;43914;57.680;11.982;2022-09-29T10:34:43;99542.86;;;11.14;77.13
54872;BME280;43914;57.680;11.982;2022-09-29T10:37:23;99542.83;;;11.20;77.20
54872;BME280;43914;57.680;11.982;2022-09-29T10:42:46;99531.31;;;11.48;74.75
54872;BME280;43914;57.680;11.982;2022-09-29T10:45:27;99543.77;;;11.58;75.05
54872;BME280;43914;57.680;11.982;2022-09-29T10:48:07;99543.34;;;11.71;74.65
54872;BME280;43914;57.680;11.982;2022-09-29T10:53:37;99542.84;;;11.80;75.10
54872;BME280;43914;57.680;11.982;2022-09-29T10:56:19;99551.81;;;11.83;73.73
54872;BME280;43914;57.680;11.982;2022-09-29T10:58:55;99543.73;;;11.83;72.29
54872;BME280;43914;57.680;11.982;2022-09-29T11:01:27;99547.86;;;11.86;72.95
54872;BME280;43914;57.680;11.982;2022-09-29T11:04:02;99542.54;;;11.98;73.73
54872;BME280;43914;57.680;11.982;2022-09-29T11:06:36;99539.96;;;12.10;72.35
54872;BME280;43914;57.680;11.982;2022-09-29T11:11:53;99547.38;;;12.43;70.44
54872;BME280;43914;57.680;11.982;2022-09-29T11:19:54;99559.56;;;12.36;69.56
54872;BME280;43914;57.680;11.982;2022-09-29T11:25:15;99565.92;;;12.32;69.93
54872;BME280;43914;57.680;11.982;2022-09-29T11:31:30;99558.30;;;12.38;69.10
54872;BME280;43914;57.680;11.982;2022-09-29T11:40:45;99573.04;;;12.36;68.88
54872;BME280;43914;57.680;11.982;2022-09-29T11:46:20;99589.06;;;12.31;68.95
54872;BME280;43914;57.680;11.982;2022-09-29T11:54:46;99574.83;;;12.91;68.85
54872;BME280;43914;57.680;11.982;2022-09-29T12:00:17;99576.89;;;13.08;67.34
54872;BME280;43914;57.680;11.982;2022-09-29T12:02:49;99577.56;;;13.24;65.63
54872;BME280;43914;57.680;11.982;2022-09-29T12:09:26;99584.71;;;13.40;65.75
54872;BME280;43914;57.680;11.982;2022-09-29T12:11:15;99584.22;;;13.52;66.07
54872;BME280;43914;57.680;11.982;2022-09-29T12:16:29;99584.52;;;13.53;65.87
54872;BME280;43914;57.680;11.982;2022-09-29T12:19:18;99587.88;;;13.58;66.05
54872;BME280;43914;57.680;11.982;2022-09-29T12:21:49;99586.47;;;13.67;65.28
54872;BME280;43914;57.680;11.982;2022-09-29T12:24:40;99590.46;;;13.53;65.04
54872;BME280;43914;57.680;11.982;2022-09-29T12:27:02;99589.75;;;13.46;64.98
54872;BME280;43914;57.680;11.982;2022-09-29T12:29:40;99586.53;;;13.37;64.32
54872;BME280;43914;57.680;11.982;2022-09-29T12:32:14;99586.58;;;13.27;64.93
54872;BME280;43914;57.680;11.982;2022-09-29T12:34:48;99589.57;;;13.28;65.45
54872;BME280;43914;57.680;11.982;2022-09-29T12:40:16;99598.34;;;13.24;63.49
54872;BME280;43914;57.680;11.982;2022-09-29T12:57:05;99597.66;;;13.28;64.38
54872;BME280;43914;57.680;11.982;2022-09-29T13:08:40;99598.61;;;13.44;63.73
54872;BME280;43914;57.680;11.982;2022-09-29T13:16:58;99607.00;;;13.56;62.69
54872;BME280;43914;57.680;11.982;2022-09-29T13:27:56;99612.34;;;13.99;62.14
54872;BME280;43914;57.680;11.982;2022-09-29T13:30:36;99602.16;;;14.16;62.17
54872;BME280;43914;57.680;11.982;2022-09-29T13:33:12;99611.78;;;14.35;61.75
54872;BME280;43914;57.680;11.982;2022-09-29T13:35:45;99613.48;;;14.39;60.38
54872;BME280;43914;57.680;11.982;2022-09-29T13:38:18;99604.06;;;14.41;60.14
54872;BME280;43914;57.680;11.982;2022-09-29T13:41:08;99600.86;;;14.30;60.01
54872;BME280;43914;57.680;11.982;2022-09-29T13:54:42;99609.12;;;15.20;56.63
54872;BME280;43914;57.680;11.982;2022-09-29T14:02:33;99620.33;;;14.97;54.20
54872;BME280;43914;57.680;11.982;2022-09-29T14:10:54;99620.98;;;15.16;54.58
54872;BME280;43914;57.680;11.982;2022-09-29T14:21:56;99625.88;;;14.64;57.70
54872;BME280;43914;57.680;11.982;2022-09-29T14:27:29;99634.17;;;14.21;57.95
54872;BME280;43914;57.680;11.982;2022-09-29T14:30:00;99634.11;;;13.83;57.51
54872;BME280;43914;57.680;11.982;2022-09-29T14:38:01;99638.91;;;13.38;60.64
54872;BME280;43914;57.680;11.982;2022-09-29T14:40:26;99645.10;;;13.27;60.02
54872;BME280;43914;57.680;11.982;2022-09-29T14:45:37;99646.73;;;13.07;60.33
54872;BME280;43914;57.680;11.982;2022-09-29T14:48:29;99644.65;;;12.99;60.79
54872;BME280;43914;57.680;11.982;2022-09-29T14:51:28;99646.23;;;12.89;61.44
54872;BME280;43914;57.680;11.982;2022-09-29T14:54:16;99643.47;;;12.77;61.29
54872;BME280;43914;57.680;11.982;2022-09-29T15:02:18;99664.73;;;12.57;61.64
54872;BME280;43914;57.680;11.982;2022-09-29T15:04:51;99673.13;;;12.49;61.64
54872;BME280;43914;57.680;11.982;2022-09-29T15:07:25;99670.12;;;12.38;61.85
54872;BME280;43914;57.680;11.982;2022-09-29T15:09:54;99670.09;;;12.29;61.94
54872;BME280;43914;57.680;11.982;2022-09-29T15:12:25;99678.41;;;12.28;62.56
54872;BME280;43914;57.680;11.982;2022-09-29T15:14:56;99679.67;;;12.25;62.80
54872;BME280;43914;57.680;11.982;2022-09-29T15:26:00;99688.03;;;12.07;64.47
54872;BME280;43914;57.680;11.982;2022-09-29T15:28:40;99690.56;;;12.02;64.39
54872;BME280;43914;57.680;11.982;2022-09-29T15:31:14;99689.73;;;11.95;64.43
54872;BME280;43914;57.680;11.982;2022-09-29T15:33:44;99691.02;;;11.92;64.85
54872;BME280;43914;57.680;11.982;2022-09-29T15:36:24;99698.70;;;11.89;65.16
54872;BME280;43914;57.680;11.982;2022-09-29T15:39:01;99698.83;;;11.84;65.00
54872;BME280;43914;57.680;11.982;2022-09-29T15:41:46;99694.40;;;11.81;64.90
54872;BME280;43914;57.680;11.982;2022-09-29T15:44:17;99696.92;;;11.76;64.78
54872;BME280;43914;57.680;11.982;2022-09-29T15:46:48;99698.94;;;11.71;65.36
54872;BME280;43914;57.680;11.982;2022-09-29T15:49:20;99700.19;;;11.68;65.45
54872;BME280;43914;57.680;11.982;2022-09-29T15:52:04;99701.13;;;11.65;65.66
54872;BME280;43914;57.680;11.982;2022-09-29T15:54:35;99696.63;;;11.59;65.56
54872;BME280;43914;57.680;11.982;2022-09-29T15:57:05;99709.91;;;11.53;65.52
54872;BME280;43914;57.680;11.982;2022-09-29T15:59:54;99712.20;;;11.50;65.75
54872;BME280;43914;57.680;11.982;2022-09-29T16:05:16;99721.57;;;11.40;65.21
54872;BME280;43914;57.680;11.982;2022-09-29T16:07:54;99720.05;;;11.35;65.34
54872;BME280;43914;57.680;11.982;2022-09-29T16:10:35;99723.38;;;11.31;65.56
54872;BME280;43914;57.680;11.982;2022-09-29T16:13:04;99732.48;;;11.30;65.83
54872;BME280;43914;57.680;11.982;2022-09-29T16:15:41;99735.60;;;11.26;66.18
54872;BME280;43914;57.680;11.982;2022-09-29T16:18:15;99739.03;;;11.24;66.29
54872;BME280;43914;57.680;11.982;2022-09-29T16:20:57;99740.27;;;11.22;66.61
54872;BME280;43914;57.680;11.982;2022-09-29T16:23:27;99737.81;;;11.20;66.76
54872;BME280;43914;57.680;11.982;2022-09-29T16:26:10;99738.01;;;11.19;66.75
54872;BME280;43914;57.680;11.982;2022-09-29T16:29:04;99736.16;;;11.19;66.83
54872;BME280;43914;57.680;11.982;2022-09-29T16:31:33;99744.23;;;11.19;66.91
54872;BME280;43914;57.680;11.982;2022-09-29T16:34:00;99745.27;;;11.18;67.23
54872;BME280;43914;57.680;11.982;2022-09-29T16:36:35;99746.50;;;11.16;67.46
54872;BME280;43914;57.680;11.982;2022-09-29T16:39:03;99750.97;;;11.13;67.55
54872;BME280;43914;57.680;11.982;2022-09-29T16:41:32;99754.19;;;11.12;67.66